Time;durP1;ratioP1;P1;durP2;ratioP2;P2;SDS_P1;SDS_P2;PMS_P1;PMS_P2;Temp;Humidity;BMP_temperature;BMP_pressure;BME280_temperature;BME280_humidity;BME280_pressure;Samples;Min_cycle;Max_cycle;Signal;HPM_P1;HPM_P2
2021/01/21 00:00:29;;;;;;;;;;;18.30;48.90;;;;;;5046093;28;19924;-55
2021/01/21 00:02:55;;;;;;;;;;;18.30;48.90;;;;;;5040623;28;19932;-56
2021/01/21 00:05:21;;;;;;;;;;;18.20;48.90;;;;;;5039761;28;19937;-54
2021/01/21 00:07:47;;;;;;;;;;;18.20;49.00;;;;;;5035397;28;19929;-54
2021/01/21 00:10:13;;;;;;;;;;;18.20;49.00;;;;;;5047840;28;19931;-53
2021/01/21 00:12:40;;;;;;;;;;;18.20;49.10;;;;;;5038955;28;20580;-54
2021/01/21 00:15:06;;;;;;;;;;;18.20;49.20;;;;;;5042193;28;19925;-54
2021/01/21 00:17:32;;;;;;;;;;;18.20;49.10;;;;;;5039802;28;19932;-55
2021/01/21 00:19:59;;;;;;;;;;;18.20;49.10;;;;;;5043325;28;19963;-55
2021/01/21 00:22:25;;;;;;;;;;;18.20;49.20;;;;;;5036839;28;19931;-55
2021/01/21 00:24:52;;;;;;;;;;;18.20;49.30;;;;;;5044395;28;20385;-55
2021/01/21 00:27:18;;;;;;;;;;;18.20;49.40;;;;;;5043448;28;19928;-55
2021/01/21 00:29:44;;;;;;;;;;;18.10;49.30;;;;;;5046291;28;19930;-55
2021/01/21 00:32:11;;;;;;;;;;;18.10;49.30;;;;;;5042938;28;20384;-55
2021/01/21 00:34:37;;;;;;;;;;;18.10;49.30;;;;;;5044210;28;19929;-55
2021/01/21 00:37:03;;;;;;;;;;;18.10;49.50;;;;;;5043909;28;20480;-55
2021/01/21 00:39:30;;;;;;;;;;;18.10;49.50;;;;;;5045552;28;19928;-55
2021/01/21 00:41:56;;;;;;;;;;;18.10;49.40;;;;;;5047921;28;19940;-55
2021/01/21 00:44:22;;;;;;;;;;;18.10;49.40;;;;;;5042931;28;20380;-55
2021/01/21 00:46:48;;;;;;;;;;;18.10;49.50;;;;;;5049389;28;19932;-55
2021/01/21 00:49:15;;;;;;;;;;;18.10;49.50;;;;;;5043602;28;19932;-55
2021/01/21 00:51:41;;;;;;;;;;;18.10;49.50;;;;;;5048780;28;20318;-55
2021/01/21 00:54:07;;;;;;;;;;;18.00;49.60;;;;;;5045443;28;19999;-55
2021/01/21 00:56:33;;;;;;;;;;;18.10;49.70;;;;;;5048443;28;19933;-55
2021/01/21 00:58:59;;;;;;;;;;;18.00;49.70;;;;;;5044286;28;20042;-55
2021/01/21 01:01:26;;;;;;;;;;;18.00;49.70;;;;;;5047738;28;20381;-55
2021/01/21 01:03:52;;;;;;;;;;;18.00;49.60;;;;;;5039838;28;20389;-55
2021/01/21 01:06:18;;;;;;;;;;;18.10;49.60;;;;;;5046678;28;19932;-55
2021/01/21 01:08:45;;;;;;;;;;;18.00;49.60;;;;;;5040770;28;19924;-55
2021/01/21 01:11:11;;;;;;;;;;;18.00;49.70;;;;;;5048089;28;19946;-55
2021/01/21 01:13:37;;;;;;;;;;;18.00;49.70;;;;;;5046296;28;19925;-56
2021/01/21 01:16:03;;;;;;;;;;;18.00;49.60;;;;;;5043838;28;19925;-55
2021/01/21 01:18:30;;;;;;;;;;;18.00;49.70;;;;;;5045417;28;20546;-55
2021/01/21 01:20:56;;;;;;;;;;;18.00;49.80;;;;;;5040451;28;19932;-55
2021/01/21 01:23:22;;;;;;;;;;;18.00;49.70;;;;;;5048290;28;20389;-55
2021/01/21 01:25:48;;;;;;;;;;;18.00;49.80;;;;;;5043311;28;19925;-56
2021/01/21 01:28:14;;;;;;;;;;;18.00;49.60;;;;;;5047403;28;19925;-55
2021/01/21 01:30:41;;;;;;;;;;;18.00;49.60;;;;;;5044052;28;19932;-55
2021/01/21 01:33:07;;;;;;;;;;;17.90;49.50;;;;;;5045696;28;19925;-55
2021/01/21 01:35:33;;;;;;;;;;;17.90;49.50;;;;;;5043263;28;20002;-55
2021/01/21 01:37:59;;;;;;;;;;;17.90;49.60;;;;;;5046226;28;20293;-55
2021/01/21 01:40:26;;;;;;;;;;;17.90;49.50;;;;;;5042803;28;19932;-55
2021/01/21 01:42:52;;;;;;;;;;;17.90;49.60;;;;;;5045222;28;19955;-55
2021/01/21 01:45:18;;;;;;;;;;;17.90;49.60;;;;;;5043224;28;19933;-55
2021/01/21 01:47:45;;;;;;;;;;;17.90;49.60;;;;;;5047026;28;20280;-55
2021/01/21 01:50:11;;;;;;;;;;;17.90;49.60;;;;;;5042025;28;19925;-55
2021/01/21 01:52:41;;;;;;;;;;;17.90;49.50;;;;;;5046132;28;19936;-55
2021/01/21 01:55:08;;;;;;;;;;;17.90;49.60;;;;;;5043640;28;20336;-55
2021/01/21 01:57:35;;;;;;;;;;;17.90;49.50;;;;;;5040288;28;19929;-55
2021/01/21 02:00:01;;;;;;;;;;;17.90;49.60;;;;;;5048869;28;20285;-55
2021/01/21 02:02:27;;;;;;;;;;;17.90;49.50;;;;;;5040253;28;20508;-55
2021/01/21 02:04:54;;;;;;;;;;;17.90;49.60;;;;;;5047825;28;19925;-55
2021/01/21 02:07:21;;;;;;;;;;;17.90;49.40;;;;;;5039889;28;20392;-55
2021/01/21 02:09:48;;;;;;;;;;;17.80;49.30;;;;;;5045537;28;20237;-55
2021/01/21 02:12:28;;;;;;;;;;;17.80;49.50;;;;;;5040623;28;19925;-55
2021/01/21 02:15:03;;;;;;;;;;;17.80;49.30;;;;;;5046626;28;20384;-55
2021/01/21 02:17:34;;;;;;;;;;;17.80;49.30;;;;;;5040485;28;21123;-55
2021/01/21 02:20:19;;;;;;;;;;;17.80;49.40;;;;;;5047783;28;19964;-55
2021/01/21 02:23:05;;;;;;;;;;;17.80;49.30;;;;;;5034512;28;19932;-55
2021/01/21 02:25:46;;;;;;;;;;;17.80;49.30;;;;;;5048783;28;19925;-55
2021/01/21 02:28:33;;;;;;;;;;;17.80;49.20;;;;;;5040737;28;19929;-55
2021/01/21 02:31:12;;;;;;;;;;;17.80;49.20;;;;;;5044537;28;20537;-55
2021/01/21 02:33:59;;;;;;;;;;;17.80;49.30;;;;;;5041451;28;19943;-55
2021/01/21 02:36:43;;;;;;;;;;;17.70;49.20;;;;;;5047317;28;19925;-55
2021/01/21 02:39:10;;;;;;;;;;;17.80;49.20;;;;;;5039144;28;19932;-55
2021/01/21 02:41:37;;;;;;;;;;;17.70;49.20;;;;;;5048782;28;19925;-55
2021/01/21 02:44:03;;;;;;;;;;;17.70;49.20;;;;;;5037715;28;19933;-55
2021/01/21 02:46:29;;;;;;;;;;;17.70;49.30;;;;;;5043927;28;20373;-55
2021/01/21 02:48:56;;;;;;;;;;;17.70;49.20;;;;;;5040275;28;19925;-55
2021/01/21 02:51:32;;;;;;;;;;;17.70;49.20;;;;;;5045677;28;20727;-55
2021/01/21 02:54:21;;;;;;;;;;;17.70;49.20;;;;;;5043528;28;19929;-56
2021/01/21 02:56:52;;;;;;;;;;;17.70;49.30;;;;;;5040695;28;20328;-55
2021/01/21 02:59:19;;;;;;;;;;;17.70;49.40;;;;;;5035699;28;19925;-55
2021/01/21 03:01:48;;;;;;;;;;;17.70;49.40;;;;;;5046854;28;19925;-55
2021/01/21 03:04:15;;;;;;;;;;;17.70;49.30;;;;;;5039918;28;19982;-55
2021/01/21 03:06:42;;;;;;;;;;;17.70;49.30;;;;;;5048912;28;19933;-55
2021/01/21 03:09:08;;;;;;;;;;;17.70;49.20;;;;;;5035998;28;19935;-55
2021/01/21 03:11:34;;;;;;;;;;;17.70;49.40;;;;;;5047156;28;19924;-55
2021/01/21 03:14:00;;;;;;;;;;;17.60;49.30;;;;;;5041969;28;20381;-56
2021/01/21 03:16:26;;;;;;;;;;;17.70;49.40;;;;;;5046310;28;20378;-55
2021/01/21 03:18:53;;;;;;;;;;;17.70;49.40;;;;;;5039512;28;19936;-55
2021/01/21 03:21:19;;;;;;;;;;;17.60;49.40;;;;;;5046870;28;20039;-55
2021/01/21 03:23:46;;;;;;;;;;;17.60;49.40;;;;;;5041267;28;19925;-55
2021/01/21 03:26:12;;;;;;;;;;;17.60;49.20;;;;;;5044704;28;19925;-55
2021/01/21 03:28:39;;;;;;;;;;;17.60;49.20;;;;;;5046543;28;19925;-55
2021/01/21 03:31:05;;;;;;;;;;;17.60;49.20;;;;;;5040712;28;19936;-55
2021/01/21 03:33:32;;;;;;;;;;;17.60;49.30;;;;;;5045162;28;19947;-55
2021/01/21 03:35:59;;;;;;;;;;;17.50;49.60;;;;;;5039400;28;20292;-55
2021/01/21 03:38:25;;;;;;;;;;;17.60;49.50;;;;;;5043062;28;19979;-55
2021/01/21 03:40:51;;;;;;;;;;;17.60;49.50;;;;;;5039960;28;19925;-55
2021/01/21 03:43:17;;;;;;;;;;;17.60;49.50;;;;;;5048331;28;19935;-55
2021/01/21 03:45:44;;;;;;;;;;;17.50;49.60;;;;;;5038308;28;20304;-55
2021/01/21 03:48:10;;;;;;;;;;;17.50;49.60;;;;;;5043880;28;19933;-55
2021/01/21 03:50:36;;;;;;;;;;;17.60;49.60;;;;;;5038107;28;20289;-55
2021/01/21 03:53:03;;;;;;;;;;;17.60;49.70;;;;;;5043082;28;19931;-55
2021/01/21 03:55:29;;;;;;;;;;;17.60;49.70;;;;;;5034913;28;20491;-55
2021/01/21 03:57:55;;;;;;;;;;;17.60;49.80;;;;;;5046247;28;19924;-55
2021/01/21 04:00:21;;;;;;;;;;;17.60;50.00;;;;;;5039930;28;19932;-55
2021/01/21 04:02:48;;;;;;;;;;;17.60;50.10;;;;;;5046065;28;19928;-55
2021/01/21 04:05:14;;;;;;;;;;;17.50;49.90;;;;;;5045965;28;19932;-55
2021/01/21 04:07:40;;;;;;;;;;;17.50;50.30;;;;;;5039407;28;19925;-55
2021/01/21 04:10:08;;;;;;;;;;;17.50;50.10;;;;;;5044020;28;19924;-55
2021/01/21 04:12:34;;;;;;;;;;;17.50;50.00;;;;;;5038750;28;19924;-55
2021/01/21 04:15:01;;;;;;;;;;;17.50;50.00;;;;;;5042847;28;19932;-55
2021/01/21 04:17:27;;;;;;;;;;;17.50;50.00;;;;;;5038409;28;20678;-56
2021/01/21 04:19:53;;;;;;;;;;;17.50;50.10;;;;;;5044919;28;19924;-55
2021/01/21 04:22:19;;;;;;;;;;;17.50;50.30;;;;;;5038391;28;19932;-55
2021/01/21 04:24:46;;;;;;;;;;;17.50;50.30;;;;;;5045545;28;20410;-55
2021/01/21 04:27:12;;;;;;;;;;;17.60;50.30;;;;;;5036479;28;19948;-55
2021/01/21 04:29:38;;;;;;;;;;;17.60;50.50;;;;;;5045248;28;19924;-56
2021/01/21 04:32:04;;;;;;;;;;;17.50;50.70;;;;;;5038383;28;20504;-55
2021/01/21 04:34:36;;;;;;;;;;;17.60;50.70;;;;;;5043678;28;19935;-55
2021/01/21 04:37:02;;;;;;;;;;;17.60;50.90;;;;;;5036506;28;20281;-55
2021/01/21 04:39:28;;;;;;;;;;;17.60;50.80;;;;;;5043275;28;19929;-55
2021/01/21 04:41:55;;;;;;;;;;;17.60;50.70;;;;;;5038068;28;20274;-55
2021/01/21 04:44:21;;;;;;;;;;;17.60;51.00;;;;;;5044525;28;19955;-55
2021/01/21 04:46:48;;;;;;;;;;;17.60;51.10;;;;;;5043638;28;19933;-55
2021/01/21 04:49:15;;;;;;;;;;;17.60;50.90;;;;;;5039995;28;19944;-55
2021/01/21 04:51:42;;;;;;;;;;;17.60;51.10;;;;;;5043049;28;19931;-55
2021/01/21 04:54:08;;;;;;;;;;;17.60;51.20;;;;;;5040127;28;19929;-55
2021/01/21 04:56:38;;;;;;;;;;;17.60;51.10;;;;;;5044162;28;21257;-55
2021/01/21 04:59:07;;;;;;;;;;;17.60;51.10;;;;;;5035347;28;19924;-55
2021/01/21 05:01:34;;;;;;;;;;;17.60;51.10;;;;;;5043574;28;19933;-55
2021/01/21 05:04:01;;;;;;;;;;;17.60;51.10;;;;;;5040707;28;19925;-55
2021/01/21 05:06:27;;;;;;;;;;;17.60;51.20;;;;;;5042736;28;19929;-55
2021/01/21 05:08:54;;;;;;;;;;;17.60;51.00;;;;;;5038200;28;19925;-55
2021/01/21 05:11:21;;;;;;;;;;;17.60;51.20;;;;;;5042392;28;19925;-55
2021/01/21 05:13:47;;;;;;;;;;;17.60;51.40;;;;;;5043338;28;19939;-54
2021/01/21 05:16:18;;;;;;;;;;;17.60;51.10;;;;;;5043718;28;19925;-55
2021/01/21 05:18:44;;;;;;;;;;;17.60;51.40;;;;;;5037152;28;19925;-56
2021/01/21 05:21:11;;;;;;;;;;;17.50;51.40;;;;;;5044846;28;19925;-55
2021/01/21 05:23:38;;;;;;;;;;;17.60;51.50;;;;;;5043998;28;19924;-53
2021/01/21 05:26:04;;;;;;;;;;;17.60;51.50;;;;;;5045697;28;19928;-54
2021/01/21 05:28:30;;;;;;;;;;;17.60;51.40;;;;;;5046884;28;19928;-54
2021/01/21 05:31:00;;;;;;;;;;;17.60;51.50;;;;;;5043774;28;20457;-54
2021/01/21 05:33:27;;;;;;;;;;;17.50;51.30;;;;;;5051037;28;19925;-54
2021/01/21 05:35:54;;;;;;;;;;;17.60;51.30;;;;;;5039299;28;20011;-55
2021/01/21 05:38:21;;;;;;;;;;;17.60;51.40;;;;;;5049849;28;19929;-54
2021/01/21 05:40:47;;;;;;;;;;;17.50;51.50;;;;;;5042965;28;20301;-54
2021/01/21 05:43:14;;;;;;;;;;;17.50;51.40;;;;;;5045811;28;19925;-55
2021/01/21 05:45:44;;;;;;;;;;;17.50;51.50;;;;;;5042924;28;19925;-53
2021/01/21 05:48:14;;;;;;;;;;;17.50;51.30;;;;;;5048211;28;19931;-56
2021/01/21 05:50:41;;;;;;;;;;;17.50;51.30;;;;;;5042083;28;19925;-55
2021/01/21 05:53:08;;;;;;;;;;;17.60;51.50;;;;;;5047398;28;19932;-56
2021/01/21 05:55:37;;;;;;;;;;;17.50;51.50;;;;;;5042121;28;19940;-54
2021/01/21 05:58:04;;;;;;;;;;;17.50;51.50;;;;;;5047772;28;19931;-54
2021/01/21 06:00:31;;;;;;;;;;;17.50;51.40;;;;;;5040492;28;20306;-54
2021/01/21 06:02:58;;;;;;;;;;;17.50;51.60;;;;;;5046174;28;20346;-54
2021/01/21 06:05:25;;;;;;;;;;;17.50;51.50;;;;;;5043369;28;19924;-54
2021/01/21 06:07:52;;;;;;;;;;;17.50;51.50;;;;;;5046529;28;19968;-55
2021/01/21 06:10:20;;;;;;;;;;;17.50;51.60;;;;;;5038019;28;19932;-53
2021/01/21 06:12:47;;;;;;;;;;;17.50;51.50;;;;;;5049804;28;19967;-54
2021/01/21 06:15:14;;;;;;;;;;;17.50;51.60;;;;;;5047249;28;19947;-55
2021/01/21 06:17:41;;;;;;;;;;;17.50;51.70;;;;;;5035886;28;19987;-54
2021/01/21 06:20:08;;;;;;;;;;;17.50;51.80;;;;;;5048706;28;19935;-54
2021/01/21 06:22:35;;;;;;;;;;;17.50;52.20;;;;;;5041044;28;19936;-54
2021/01/21 06:25:04;;;;;;;;;;;17.50;52.50;;;;;;5046136;28;19925;-55
2021/01/21 06:27:33;;;;;;;;;;;17.50;53.00;;;;;;5040701;28;19935;-54
2021/01/21 06:30:00;;;;;;;;;;;17.50;52.40;;;;;;5048089;28;19925;-54
2021/01/21 06:32:30;;;;;;;;;;;17.50;52.10;;;;;;5040276;28;20369;-54
2021/01/21 06:35:01;;;;;;;;;;;17.50;52.20;;;;;;5047226;28;19925;-55
2021/01/21 06:37:28;;;;;;;;;;;17.50;52.10;;;;;;5040621;28;20369;-53
2021/01/21 06:40:01;;;;;;;;;;;17.50;52.20;;;;;;5043431;28;19928;-54
2021/01/21 06:42:29;;;;;;;;;;;17.40;51.90;;;;;;5040204;28;19929;-54
2021/01/21 06:44:56;;;;;;;;;;;17.40;52.00;;;;;;5045547;28;21275;-54
2021/01/21 06:47:24;;;;;;;;;;;17.40;51.90;;;;;;5036181;28;19933;-54
2021/01/21 06:49:54;;;;;;;;;;;17.40;52.10;;;;;;5041145;28;19929;-54
2021/01/21 06:52:21;;;;;;;;;;;17.50;52.30;;;;;;5034271;28;19933;-56
2021/01/21 06:54:52;;;;;;;;;;;17.40;51.90;;;;;;5044401;28;19925;-54
2021/01/21 06:57:33;;;;;;;;;;;17.50;52.20;;;;;;5034761;28;19925;-54
2021/01/21 07:00:05;;;;;;;;;;;17.40;52.20;;;;;;5040179;28;19925;-54
2021/01/21 07:02:38;;;;;;;;;;;17.40;52.20;;;;;;5036652;28;19929;-54
2021/01/21 07:05:08;;;;;;;;;;;17.40;52.00;;;;;;5043498;28;19947;-54
2021/01/21 07:07:53;;;;;;;;;;;17.40;52.00;;;;;;5039224;28;19933;-56
2021/01/21 07:10:20;;;;;;;;;;;17.40;51.90;;;;;;5041039;28;19933;-55
2021/01/21 07:12:46;;;;;;;;;;;17.40;52.00;;;;;;5040067;28;20381;-54
2021/01/21 07:15:14;;;;;;;;;;;17.40;52.10;;;;;;5046228;28;19931;-54
2021/01/21 07:17:41;;;;;;;;;;;17.40;51.90;;;;;;5043798;28;20304;-55
2021/01/21 07:20:07;;;;;;;;;;;17.40;52.50;;;;;;5036116;28;20287;-56
2021/01/21 07:22:43;;;;;;;;;;;17.40;52.10;;;;;;5053268;28;20324;-55
2021/01/21 07:25:46;;;;;;;;;;;17.50;53.30;;;;;;5038029;28;19935;-53
2021/01/21 07:28:15;;;;;;;;;;;18.00;51.90;;;;;;5042599;28;20340;-58
2021/01/21 07:31:00;;;;;;;;;;;18.60;50.70;;;;;;5048460;28;19935;-58
2021/01/21 07:33:26;;;;;;;;;;;18.90;49.80;;;;;;5050698;28;19925;-58
2021/01/21 07:35:53;;;;;;;;;;;19.20;49.10;;;;;;5050866;28;19935;-60
2021/01/21 07:38:38;;;;;;;;;;;19.40;48.60;;;;;;5051618;28;19933;-58
2021/01/21 07:41:06;;;;;;;;;;;19.70;48.50;;;;;;5050570;28;19947;-59
2021/01/21 07:43:51;;;;;;;;;;;19.90;48.00;;;;;;5046886;28;19932;-59
2021/01/21 07:49:39;;;;;;;;;;;20.30;47.20;;;;;;5042499;28;20281;-58
2021/01/21 07:52:05;;;;;;;;;;;20.50;46.90;;;;;;5048207;28;19956;-59
2021/01/21 07:54:52;;;;;;;;;;;20.60;46.50;;;;;;5040812;28;19990;-60
2021/01/21 07:57:22;;;;;;;;;;;20.80;46.30;;;;;;5043463;28;19980;-58
2021/01/21 07:59:57;;;;;;;;;;;20.80;46.00;;;;;;5055528;28;19929;-57
2021/01/21 08:02:23;;;;;;;;;;;20.90;46.00;;;;;;5059345;28;20281;-59
2021/01/21 08:04:59;;;;;;;;;;;21.00;45.90;;;;;;5047221;28;20507;-58
2021/01/21 08:07:44;;;;;;;;;;;21.10;45.80;;;;;;5051488;28;19925;-59
2021/01/21 08:10:11;;;;;;;;;;;21.20;45.50;;;;;;5034705;28;19947;-60
2021/01/21 08:12:37;;;;;;;;;;;21.30;45.30;;;;;;5053911;28;20364;-60
2021/01/21 08:15:04;;;;;;;;;;;21.40;45.10;;;;;;5053716;28;19924;-59
2021/01/21 08:17:30;;;;;;;;;;;21.50;45.00;;;;;;5053927;28;19935;-62
2021/01/21 08:19:57;;;;;;;;;;;21.60;44.90;;;;;;5052164;28;19925;-59
2021/01/21 08:22:23;;;;;;;;;;;21.60;44.70;;;;;;5052552;28;20397;-58
2021/01/21 08:24:59;;;;;;;;;;;21.70;44.60;;;;;;5053577;28;19931;-57
2021/01/21 08:27:45;;;;;;;;;;;21.70;45.10;;;;;;5039035;28;19931;-56
2021/01/21 08:30:19;;;;;;;;;;;21.80;44.50;;;;;;5043105;28;19925;-57
2021/01/21 08:32:47;;;;;;;;;;;21.90;44.40;;;;;;5037319;28;19925;-56
2021/01/21 08:35:16;;;;;;;;;;;21.90;44.30;;;;;;5043748;28;19978;-56
2021/01/21 08:37:43;;;;;;;;;;;21.90;44.20;;;;;;5033211;28;19935;-61
2021/01/21 08:40:10;;;;;;;;;;;22.10;44.00;;;;;;5042626;28;20349;-58
2021/01/21 08:42:37;;;;;;;;;;;22.10;43.60;;;;;;5039234;28;19967;-55
2021/01/21 08:45:04;;;;;;;;;;;22.10;44.10;;;;;;5043842;28;20405;-55
2021/01/21 08:47:40;;;;;;;;;;;22.10;44.20;;;;;;5039379;28;20372;-55
2021/01/21 08:50:06;;;;;;;;;;;22.10;44.30;;;;;;5046874;28;19933;-56
2021/01/21 08:52:33;;;;;;;;;;;22.10;44.10;;;;;;5040663;28;19928;-56
2021/01/21 08:54:59;;;;;;;;;;;22.20;43.90;;;;;;5045748;28;19933;-55
2021/01/21 08:57:26;;;;;;;;;;;22.10;44.50;;;;;;5042806;28;19929;-55
2021/01/21 08:59:52;;;;;;;;;;;22.10;45.80;;;;;;5045939;28;19943;-62
2021/01/21 11:18:39;;;;;;;;;;;24.90;41.70;;;;;;5069767;23;19933;-61
2021/01/21 11:21:05;;;;;;;;;;;24.70;41.80;;;;;;5049370;28;19924;-60
2021/01/21 11:23:32;;;;;;;;;;;24.50;41.80;;;;;;5038301;28;19932;-62
2021/01/21 11:25:58;;;;;;;;;;;24.40;41.90;;;;;;5044820;28;19951;-62
2021/01/21 11:28:24;;;;;;;;;;;24.30;42.10;;;;;;5040673;28;19932;-61
2021/01/21 11:30:50;;;;;;;;;;;24.20;42.10;;;;;;5051040;28;19924;-59
2021/01/21 11:33:17;;;;;;;;;;;24.10;44.30;;;;;;5041559;28;19928;-58
2021/01/21 11:35:54;;;;;;;;;;;24.00;44.80;;;;;;5044433;28;20014;-59
2021/01/21 11:38:20;;;;;;;;;;;23.90;44.40;;;;;;5044092;28;19928;-61
2021/01/21 11:40:46;;;;;;;;;;;24.00;45.10;;;;;;5048712;28;19932;-58
2021/01/21 11:43:13;;;;;;;;;;;23.90;44.80;;;;;;5039946;28;19932;-62
2021/01/21 11:45:39;;;;;;;;;;;23.90;44.70;;;;;;5040920;28;19963;-58
2021/01/21 11:48:05;;;;;;;;;;;23.90;45.10;;;;;;5042687;28;20575;-58
2021/01/21 11:50:32;;;;;;;;;;;23.90;44.70;;;;;;5033585;28;19949;-57
2021/01/21 11:52:58;;;;;;;;;;;23.80;44.90;;;;;;5049654;28;19932;-60
2021/01/21 11:55:49;;;;;;;;;;;23.80;44.80;;;;;;5041404;28;19932;-58
2021/01/21 11:58:15;;;;;;;;;;;23.80;44.80;;;;;;5036612;28;19925;-58
2021/01/21 12:00:41;;;;;;;;;;;23.80;44.90;;;;;;5041418;28;20292;-61
2021/01/21 12:03:08;;;;;;;;;;;23.70;44.70;;;;;;5043991;28;20353;-62
2021/01/21 12:05:34;;;;;;;;;;;23.80;44.80;;;;;;5032097;28;19940;-56
2021/01/21 12:08:00;;;;;;;;;;;23.70;44.80;;;;;;5038296;28;19925;-59
2021/01/21 12:10:26;;;;;;;;;;;23.70;44.70;;;;;;5037344;28;19924;-57
2021/01/21 12:12:52;;;;;;;;;;;23.70;45.20;;;;;;5039232;28;19925;-58
2021/01/21 12:15:19;;;;;;;;;;;23.60;44.60;;;;;;5051770;28;19936;-59
2021/01/21 12:17:45;;;;;;;;;;;23.60;44.80;;;;;;5045559;28;19925;-60
2021/01/21 12:20:11;;;;;;;;;;;23.60;44.80;;;;;;5042730;28;19936;-58
2021/01/21 12:22:40;;;;;;;;;;;23.60;44.30;;;;;;5048460;28;19925;-59
2021/01/21 12:25:06;;;;;;;;;;;23.60;44.30;;;;;;5052040;28;19924;-57
2021/01/21 12:27:32;;;;;;;;;;;23.10;43.10;;;;;;5052057;28;19925;-57
2021/01/21 12:29:59;;;;;;;;;;;22.80;45.10;;;;;;5037993;28;19929;-57
2021/01/21 12:32:26;;;;;;;;;;;22.80;45.90;;;;;;5043468;28;19933;-60
2021/01/21 12:34:53;;;;;;;;;;;23.00;46.00;;;;;;5044598;28;20403;-60
2021/01/21 12:37:19;;;;;;;;;;;23.10;45.80;;;;;;5045562;28;19932;-60
2021/01/21 12:39:45;;;;;;;;;;;23.20;45.30;;;;;;5050670;28;19925;-58
2021/01/21 12:42:12;;;;;;;;;;;23.20;46.10;;;;;;5044686;28;19933;-57
2021/01/21 12:44:54;;;;;;;;;;;23.20;45.80;;;;;;5047056;28;19925;-58
2021/01/21 12:47:21;;;;;;;;;;;23.20;46.20;;;;;;5041607;28;19931;-57
2021/01/21 12:49:47;;;;;;;;;;;23.20;46.50;;;;;;5037856;28;20392;-55
2021/01/21 12:52:13;;;;;;;;;;;23.20;46.00;;;;;;5033756;28;20384;-58
2021/01/21 12:54:42;;;;;;;;;;;23.20;46.00;;;;;;5044920;28;19933;-57
2021/01/21 12:57:08;;;;;;;;;;;23.20;45.90;;;;;;5040251;28;20458;-57
2021/01/21 12:59:34;;;;;;;;;;;23.20;45.40;;;;;;5043941;28;19971;-59
2021/01/21 13:02:00;;;;;;;;;;;23.20;45.40;;;;;;5034872;28;19932;-60
2021/01/21 13:04:27;;;;;;;;;;;23.20;45.10;;;;;;5054762;28;20556;-58
2021/01/21 13:06:53;;;;;;;;;;;23.20;45.40;;;;;;5042053;28;19929;-61
2021/01/21 13:09:19;;;;;;;;;;;23.20;45.40;;;;;;5032255;28;20006;-57
2021/01/21 13:11:45;;;;;;;;;;;23.20;45.50;;;;;;5044912;28;19935;-59
2021/01/21 13:14:12;;;;;;;;;;;23.20;45.70;;;;;;5028164;28;19936;-57
2021/01/21 13:16:39;;;;;;;;;;;23.20;45.70;;;;;;5043275;28;19928;-57
2021/01/21 13:19:06;;;;;;;;;;;23.20;45.20;;;;;;5032241;28;19924;-57
2021/01/21 13:21:32;;;;;;;;;;;23.20;45.00;;;;;;5043486;28;20405;-59
2021/01/21 13:23:58;;;;;;;;;;;23.20;44.80;;;;;;5035281;28;20338;-59
2021/01/21 13:26:25;;;;;;;;;;;23.10;44.70;;;;;;5045028;28;19928;-59
2021/01/21 13:28:52;;;;;;;;;;;23.10;44.90;;;;;;5034870;28;19925;-59
2021/01/21 13:31:18;;;;;;;;;;;23.10;44.40;;;;;;5046605;28;19931;-58
2021/01/21 13:33:45;;;;;;;;;;;23.10;44.70;;;;;;5037884;28;19925;-57
2021/01/21 13:36:11;;;;;;;;;;;23.00;44.50;;;;;;5049156;28;19940;-58
2021/01/21 13:38:38;;;;;;;;;;;23.00;44.70;;;;;;5046489;28;19925;-58
2021/01/21 13:41:05;;;;;;;;;;;22.90;44.50;;;;;;5042816;28;20154;-58
2021/01/21 13:43:31;;;;;;;;;;;22.90;44.40;;;;;;5046654;28;19933;-59
2021/01/21 13:45:58;;;;;;;;;;;22.80;44.40;;;;;;5046048;28;19939;-57
2021/01/21 13:48:24;;;;;;;;;;;22.70;45.50;;;;;;5046886;28;19997;-59
2021/01/21 13:50:51;;;;;;;;;;;22.70;45.50;;;;;;5040724;28;19933;-58
2021/01/21 13:53:17;;;;;;;;;;;22.70;45.70;;;;;;5051471;28;19935;-58
2021/01/21 13:55:43;;;;;;;;;;;22.70;45.60;;;;;;5041245;28;19932;-56
2021/01/21 13:58:10;;;;;;;;;;;22.80;45.80;;;;;;5045026;28;19979;-58
2021/01/21 14:00:36;;;;;;;;;;;22.70;45.80;;;;;;5039662;28;20262;-64
2021/01/21 14:03:03;;;;;;;;;;;22.80;45.60;;;;;;5050113;28;20402;-61
2021/01/21 14:05:29;;;;;;;;;;;22.80;46.30;;;;;;5036362;28;19940;-55
2021/01/21 14:07:55;;;;;;;;;;;22.70;46.10;;;;;;5051001;28;19929;-57
2021/01/21 14:10:22;;;;;;;;;;;22.80;46.60;;;;;;5040997;28;20248;-56
2021/01/21 14:12:48;;;;;;;;;;;22.80;46.40;;;;;;5046812;28;19924;-56
2021/01/21 14:15:14;;;;;;;;;;;22.80;46.50;;;;;;5043992;28;19931;-61
2021/01/21 14:17:40;;;;;;;;;;;22.80;46.50;;;;;;5046351;28;19925;-61
2021/01/21 14:20:08;;;;;;;;;;;22.80;45.90;;;;;;5042451;28;19925;-60
2021/01/21 14:22:34;;;;;;;;;;;22.80;46.30;;;;;;5037658;28;19974;-61
2021/01/21 14:25:04;;;;;;;;;;;22.80;46.40;;;;;;5046407;28;19933;-61
2021/01/21 14:27:31;;;;;;;;;;;22.80;46.00;;;;;;5042849;28;19940;-59
2021/01/21 14:29:57;;;;;;;;;;;22.80;46.10;;;;;;5046925;28;19937;-62
2021/01/21 14:32:24;;;;;;;;;;;22.80;46.50;;;;;;5039243;28;21315;-61
2021/01/21 14:34:51;;;;;;;;;;;22.90;46.60;;;;;;5045047;28;20447;-60
2021/01/21 14:37:17;;;;;;;;;;;22.90;46.10;;;;;;5031408;28;19987;-60
2021/01/21 14:39:43;;;;;;;;;;;22.80;45.60;;;;;;5046364;28;20296;-61
2021/01/21 14:42:10;;;;;;;;;;;22.80;46.30;;;;;;5033917;28;19935;-62
2021/01/21 14:44:42;;;;;;;;;;;22.80;46.30;;;;;;5046550;28;19929;-61
2021/01/21 14:47:08;;;;;;;;;;;22.80;45.90;;;;;;5038841;28;20292;-57
2021/01/21 14:49:35;;;;;;;;;;;22.80;46.10;;;;;;5047292;28;19957;-58
2021/01/21 14:52:01;;;;;;;;;;;22.80;46.10;;;;;;5038487;28;20304;-56
2021/01/21 14:54:30;;;;;;;;;;;22.80;46.40;;;;;;5045244;28;20020;-56
2021/01/21 14:56:57;;;;;;;;;;;22.80;46.10;;;;;;5040347;28;19968;-56
2021/01/21 14:59:23;;;;;;;;;;;22.80;46.40;;;;;;5045703;28;20015;-58
2021/01/21 15:01:49;;;;;;;;;;;22.80;46.10;;;;;;5052013;28;19937;-57
2021/01/21 15:04:16;;;;;;;;;;;22.80;46.10;;;;;;5045993;28;19948;-60
2021/01/21 15:06:42;;;;;;;;;;;22.80;46.60;;;;;;5048167;28;19980;-57
2021/01/21 15:09:08;;;;;;;;;;;22.80;46.20;;;;;;5048570;28;19975;-58
2021/01/21 15:11:34;;;;;;;;;;;22.80;46.00;;;;;;5051018;28;19932;-58
2021/01/21 15:14:00;;;;;;;;;;;22.80;46.00;;;;;;5046451;28;20684;-57
2021/01/21 15:16:37;;;;;;;;;;;22.80;46.60;;;;;;5047837;28;19925;-59
2021/01/21 15:19:03;;;;;;;;;;;22.80;45.70;;;;;;5043812;28;20510;-60
2021/01/21 15:21:29;;;;;;;;;;;22.80;45.90;;;;;;5047731;28;19932;-56
2021/01/21 15:23:55;;;;;;;;;;;22.80;45.80;;;;;;5034767;28;20277;-57
2021/01/21 15:26:23;;;;;;;;;;;22.80;45.80;;;;;;5046536;28;19929;-56
2021/01/21 15:28:49;;;;;;;;;;;22.80;46.00;;;;;;5037923;28;19939;-56
2021/01/21 15:31:17;;;;;;;;;;;22.70;46.00;;;;;;5043326;28;19931;-57
2021/01/21 15:33:43;;;;;;;;;;;22.70;46.30;;;;;;5041334;28;19925;-57
2021/01/21 15:36:10;;;;;;;;;;;22.80;46.10;;;;;;5044261;28;20446;-58
2021/01/21 15:38:36;;;;;;;;;;;22.80;46.00;;;;;;5049583;28;20008;-58
2021/01/21 15:41:02;;;;;;;;;;;22.80;46.00;;;;;;5043816;28;19929;-58
2021/01/21 15:43:29;;;;;;;;;;;22.80;45.70;;;;;;5047849;28;19936;-58
2021/01/21 15:45:55;;;;;;;;;;;22.80;46.00;;;;;;5046738;28;19929;-60
2021/01/21 15:48:22;;;;;;;;;;;22.80;46.40;;;;;;5049984;28;19929;-57
2021/01/21 15:50:50;;;;;;;;;;;22.80;46.00;;;;;;5041746;28;19924;-59
2021/01/21 15:53:16;;;;;;;;;;;22.80;45.60;;;;;;5047077;28;19924;-58
2021/01/21 15:55:49;;;;;;;;;;;22.80;45.80;;;;;;5045773;28;19921;-56
2021/01/21 15:58:15;;;;;;;;;;;22.80;46.10;;;;;;5048446;28;19932;-60
2021/01/21 16:00:43;;;;;;;;;;;22.70;46.40;;;;;;5044163;28;19916;-59
2021/01/21 16:03:10;;;;;;;;;;;22.70;46.40;;;;;;5050517;28;19929;-55
2021/01/21 16:05:37;;;;;;;;;;;22.70;46.30;;;;;;5043724;28;19933;-56
2021/01/21 16:08:07;;;;;;;;;;;22.80;46.20;;;;;;5045358;28;19933;-56
2021/01/21 16:10:33;;;;;;;;;;;22.80;45.90;;;;;;5043133;28;19925;-58
2021/01/21 16:13:01;;;;;;;;;;;22.70;46.00;;;;;;5045578;28;19967;-62
2021/01/21 16:15:37;;;;;;;;;;;22.50;44.80;;;;;;5045118;28;19921;-55
2021/01/21 16:18:04;;;;;;;;;;;22.10;45.90;;;;;;5044675;28;19925;-57
2021/01/21 16:20:36;;;;;;;;;;;21.90;46.90;;;;;;5045816;28;19933;-53
2021/01/21 16:23:16;;;;;;;;;;;21.70;47.50;;;;;;5045597;28;19952;-54
2021/01/21 16:25:57;;;;;;;;;;;21.50;47.80;;;;;;5049850;28;19925;-54
2021/01/21 16:28:23;;;;;;;;;;;21.50;48.30;;;;;;5046978;28;19936;-54
2021/01/21 16:30:50;;;;;;;;;;;21.30;48.50;;;;;;5045125;28;20464;-54
2021/01/21 16:33:17;;;;;;;;;;;21.30;48.70;;;;;;5047566;28;19924;-53
2021/01/21 16:36:09;;;;;;;;;;;21.20;48.80;;;;;;5048129;28;20305;-55
2021/01/21 16:38:35;;;;;;;;;;;21.10;49.00;;;;;;5050705;28;19925;-54
2021/01/21 16:41:02;;;;;;;;;;;21.10;49.10;;;;;;5049362;28;19924;-55